Aérodrome :
LOGIN :

S'inscrire | Disclaimer

   EN    FR    IT 

 










Légende :    VFR   VFR Marginal   IFR   IFR Intensif   IFR Très Intensif
Visi : 
Plafond : 
>= 8 km
>= 3000ft
5 à 8 km
1000 à 3000 ft
1500m à 5 km
500 à 1000 ft
800 à 1500m
200 à 500 ft
< 800m
< 200 ft
Symboles :   Orages  Brouillard  Fortes neiges  Fortes précipitations  Vent > 20 kt
SIGMETs :   Divers  Orages  Givrage  Turbulence  Onde Orograph.  Cendres Volcan.







- Altitude de l'aérodrome : 290 ft
- Code IATA : LAI
- Voir les cartes d'approche


LFRO - Lannion

DERNIER METAR :
  • 230730Z AUTO 33009KT 300V360 9999 BKN034 BKN070 OVC200 07/01 Q1002 TEMPO 33018G28KT 3000 SHRA SCT012TCU BKN014

METARs EXPIRÉS :
  • 230700Z AUTO 33011KT 300V360 9999 SCT034 SCT056 BKN070 07/01 Q1002 TEMPO 33018G28KT 3000 SHRA SCT012TCU BKN014
  • 230630Z AUTO 33011KT 310V010 9999 BKN034 BKN042 BKN052 07/01 Q1001 TEMPO 33018G28KT 3000 SHRA SCT012TCU BKN014
  • 230600Z AUTO 33012KT 300V010 9999 BKN034 BKN041 BKN070 07/01 Q1001 TEMPO 33018G28KT 3000 SHRA SCT012TCU BKN014
  • 230530Z AUTO 33011KT 9999 SCT032 BKN080 OVC240 06/02 Q1001 TEMPO 33018G28KT 3000 SHRA SCT012TCU BKN014
  • 230500Z AUTO 33015KT 9999 FEW025/// BKN030/// BKN035/// ///TCU 06/02 Q1001 TEMPO 31013G29KT 3000 SHRA SCT013CB BKN015
  • 230430Z AUTO 33012KT 290V350 9999 BKN023 BKN031 OVC220 06/03 Q1000 TEMPO 3000 SHRA SCT013CB BKN015

TAF TAF LFRO
Valide du 23 à 06h jusqu'au 24 à 06h UTC


230500Z 2306/2406 33015KT 9999 SCT020 BKN030
TEMPO 2306/2312 33018G28KT 3000 SHRA SCT012TCU BKN014
PROB30
TEMPO 2312/2318 4000 SHRA BKN015
BECMG 2321/2324 VRB04KT
Pas de NOTAMs connus pour ce terrain.



MET'MAP, la Météo Aéronautique d'un coup d'oeil ! - Copyright ORBIFLY Décembre 2007 - Disclaimer

ORBIFLY MET'MAP TEAM :

Programmation & Développement : Alexandra Zaïnal
Conception & Développement : Baudouin d'Aumeries
Co-Programmation & Développement : Marc-Olivier Méhu
Soutien technique & logistique : Manuel Goepfert

Contact : metmap@orbifly.com




SOURCES & CREDITS :

   NOAA